Time;durP1;ratioP1;P1;durP2;ratioP2;P2;SDS_P1;SDS_P2;PMS_P1;PMS_P2;Temp;Humidity;BMP_temperature;BMP_pressure;BME280_temperature;BME280_humidity;BME280_pressure;Samples;Min_cycle;Max_cycle;Signal;HPM_P1;HPM_P2
2024/02/01 00:00:19;;;;;;;4.97;3.72;;;10.00;82.10;;;;;;4895324;29;20036;-82
2024/02/01 00:02:45;;;;;;;6.18;3.90;;;10.00;82.10;;;;;;4893146;29;20031;-87
2024/02/01 00:05:11;;;;;;;5.72;3.97;;;10.10;82.20;;;;;;4893124;29;20035;-82
2024/02/01 00:07:37;;;;;;;4.80;3.55;;;10.10;82.20;;;;;;4880489;29;20119;-88
2024/02/01 00:10:03;;;;;;;4.68;3.85;;;10.10;82.20;;;;;;4888796;29;20063;-88
2024/02/01 00:12:29;;;;;;;5.88;4.35;;;10.10;82.20;;;;;;4895399;29;20029;-96
2024/02/01 00:14:55;;;;;;;5.07;3.70;;;10.00;82.10;;;;;;4899823;29;20078;-96
2024/02/01 00:17:21;;;;;;;5.20;3.88;;;10.10;82.20;;;;;;4907810;29;20029;-95
2024/02/01 00:19:46;;;;;;;5.70;4.03;;;10.10;82.20;;;;;;4881451;29;20451;-83
2024/02/01 00:22:12;;;;;;;5.22;4.05;;;10.10;82.20;;;;;;4895954;29;20414;-82
2024/02/01 00:24:39;;;;;;;4.80;3.85;;;10.10;82.20;;;;;;4890508;29;20093;-82
2024/02/01 00:27:08;;;;;;;5.40;4.22;;;10.10;82.20;;;;;;4882013;29;20065;-96
2024/02/01 00:29:33;;;;;;;5.10;3.88;;;10.10;82.20;;;;;;4887237;29;20047;-96
2024/02/01 00:31:59;;;;;;;5.53;4.25;;;10.10;82.20;;;;;;4883787;29;20079;-95
2024/02/01 00:34:32;;;;;;;5.80;4.68;;;10.10;82.20;;;;;;4884955;29;20125;-96
2024/02/01 00:36:58;;;;;;;5.78;4.38;;;10.10;82.20;;;;;;4904812;29;20111;-82
2024/02/01 00:39:24;;;;;;;4.80;4.13;;;10.10;82.20;;;;;;4903933;29;20187;-87
2024/02/01 00:41:51;;;;;;;6.65;4.78;;;10.10;82.20;;;;;;4891856;29;20393;-87
2024/02/01 00:44:17;;;;;;;5.18;4.22;;;10.10;82.20;;;;;;4873589;29;20033;-87
2024/02/01 00:46:42;;;;;;;5.85;4.20;;;10.10;82.20;;;;;;4875945;29;20051;-88
2024/02/01 00:49:08;;;;;;;5.45;4.30;;;10.10;82.20;;;;;;4889040;29;20052;-88
2024/02/01 00:51:34;;;;;;;6.78;4.63;;;10.10;82.20;;;;;;4891692;29;20041;-87
2024/02/01 00:54:00;;;;;;;6.93;4.85;;;10.10;82.20;;;;;;4906947;29;20504;-88
2024/02/01 00:56:28;;;;;;;6.15;4.88;;;10.20;82.20;;;;;;4890111;29;20028;-83
2024/02/01 00:58:54;;;;;;;6.30;4.80;;;10.10;82.20;;;;;;4893738;29;20025;-96
2024/02/01 01:01:20;;;;;;;5.88;4.60;;;10.10;82.20;;;;;;4895718;29;20500;-95
2024/02/01 01:03:46;;;;;;;7.03;4.95;;;10.20;82.20;;;;;;4877564;29;20028;-92
2024/02/01 01:06:12;;;;;;;5.80;4.60;;;10.20;82.20;;;;;;4894034;29;20032;-95
2024/02/01 01:08:37;;;;;;;6.53;4.43;;;10.20;82.30;;;;;;4895628;29;20040;-95
2024/02/01 01:11:04;;;;;;;6.65;4.40;;;10.20;82.30;;;;;;4896192;29;20154;-82
2024/02/01 01:13:30;;;;;;;6.47;5.10;;;10.20;82.30;;;;;;4890818;29;20033;-83
2024/02/01 01:15:55;;;;;;;6.10;4.70;;;10.10;82.20;;;;;;4892308;29;20028;-83
2024/02/01 01:18:22;;;;;;;5.80;4.88;;;10.20;82.30;;;;;;4869739;29;20073;-87
2024/02/01 01:20:48;;;;;;;6.03;4.57;;;10.20;82.30;;;;;;4902204;29;20077;-82
2024/02/01 01:23:13;;;;;;;6.45;4.80;;;10.20;82.30;;;;;;4890201;29;20442;-78
2024/02/01 01:25:39;;;;;;;6.18;4.90;;;10.20;82.30;;;;;;4890568;29;20393;-78
2024/02/01 01:28:05;;;;;;;6.00;4.50;;;10.20;82.90;;;;;;4891405;29;20032;-87
2024/02/01 01:30:31;;;;;;;5.93;4.95;;;10.20;82.30;;;;;;4887641;29;20035;-77
2024/02/01 01:32:56;;;;;;;7.10;5.15;;;10.20;82.30;;;;;;4894761;29;20024;-81
2024/02/01 01:35:22;;;;;;;6.47;5.43;;;10.20;82.30;;;;;;4890420;29;20093;-82
2024/02/01 01:37:48;;;;;;;5.32;4.32;;;10.20;82.40;;;;;;4876020;29;20040;-82
2024/02/01 01:40:14;;;;;;;5.93;4.60;;;10.20;82.30;;;;;;4891326;29;20064;-82
2024/02/01 01:42:46;;;;;;;6.03;4.78;;;10.20;82.40;;;;;;4894021;29;20043;-87
2024/02/01 01:45:12;;;;;;;5.55;4.63;;;10.20;82.40;;;;;;4895458;29;20037;-81
2024/02/01 01:47:38;;;;;;;5.60;4.97;;;10.20;82.40;;;;;;4892753;29;20029;-78
2024/02/01 01:50:06;;;;;;;6.63;4.57;;;10.20;82.40;;;;;;4889918;29;20060;-82
2024/02/01 01:52:34;;;;;;;5.60;4.65;;;10.20;82.40;;;;;;4875613;29;20049;-82
2024/02/01 01:54:59;;;;;;;5.25;4.18;;;10.20;82.40;;;;;;4878594;29;20093;-81
2024/02/01 01:57:28;;;;;;;5.55;4.25;;;10.20;82.40;;;;;;4908290;29;20112;-82
2024/02/01 01:59:55;;;;;;;6.43;4.80;;;10.20;82.50;;;;;;4899757;29;20021;-87
2024/02/01 02:02:21;;;;;;;6.45;4.43;;;10.20;82.40;;;;;;4896976;29;20033;-82
2024/02/01 02:04:51;;;;;;;5.20;4.20;;;10.20;82.40;;;;;;4880431;29;20040;-87
2024/02/01 02:07:17;;;;;;;4.88;3.72;;;10.20;82.50;;;;;;4904609;29;20026;-78
2024/02/01 02:09:42;;;;;;;5.30;4.20;;;10.30;82.50;;;;;;4897039;29;20550;-88
2024/02/01 02:12:10;;;;;;;5.72;4.80;;;10.30;82.50;;;;;;4897292;29;20594;-77
2024/02/01 02:14:36;;;;;;;6.10;4.15;;;10.20;82.40;;;;;;4881360;29;20120;-88
2024/02/01 02:17:03;;;;;;;5.00;4.20;;;10.30;82.40;;;;;;4881328;29;20062;-82
2024/02/01 02:19:29;;;;;;;5.30;4.15;;;10.30;82.50;;;;;;4898318;29;20119;-82
2024/02/01 02:21:55;;;;;;;6.43;4.50;;;10.30;82.50;;;;;;4897235;29;20060;-83
2024/02/01 02:24:21;;;;;;;5.00;4.18;;;10.30;82.50;;;;;;4896313;29;20033;-77
2024/02/01 02:26:48;;;;;;;5.68;4.30;;;10.30;82.40;;;;;;4886822;29;20033;-77
2024/02/01 02:29:15;;;;;;;5.38;4.35;;;10.30;82.50;;;;;;4894208;29;20024;-87
2024/02/01 02:31:46;;;;;;;5.38;4.35;;;10.30;82.40;;;;;;4890921;29;21362;-78
2024/02/01 02:34:12;;;;;;;5.40;4.60;;;10.30;82.50;;;;;;4889117;29;20036;-78
2024/02/01 02:36:39;;;;;;;5.30;4.25;;;10.30;82.50;;;;;;4887836;29;20107;-87
2024/02/01 02:39:05;;;;;;;4.85;4.10;;;10.30;82.50;;;;;;4891342;29;20036;-78
2024/02/01 02:41:30;;;;;;;4.75;3.88;;;10.30;82.50;;;;;;4890827;29;20047;-81
2024/02/01 02:43:57;;;;;;;5.03;4.22;;;10.30;82.50;;;;;;4876516;29;20040;-82
2024/02/01 02:46:25;;;;;;;5.43;4.32;;;10.40;82.50;;;;;;4877014;29;20025;-82
2024/02/01 02:48:51;;;;;;;4.72;4.10;;;10.40;82.50;;;;;;4892551;29;20041;-88
2024/02/01 02:51:17;;;;;;;5.07;4.00;;;10.30;82.40;;;;;;4891167;29;20048;-82
2024/02/01 02:53:43;;;;;;;5.63;4.05;;;10.40;82.50;;;;;;4886883;29;20105;-82
2024/02/01 02:56:09;;;;;;;6.10;4.25;;;10.40;82.50;;;;;;4893259;29;20020;-82
2024/02/01 02:58:36;;;;;;;4.68;3.72;;;10.40;82.40;;;;;;4890479;29;20036;-82
2024/02/01 03:01:05;;;;;;;5.10;4.10;;;10.40;82.40;;;;;;4889266;29;20029;-81
2024/02/01 03:03:33;;;;;;;6.38;4.65;;;10.40;82.40;;;;;;4890693;29;20040;-81
2024/02/01 03:05:59;;;;;;;4.80;4.03;;;10.40;82.40;;;;;;4892678;29;20091;-88
2024/02/01 03:08:24;;;;;;;6.07;4.25;;;10.50;82.40;;;;;;4883829;29;20084;-82
2024/02/01 03:10:50;;;;;;;4.78;3.75;;;10.50;82.40;;;;;;4888524;29;20040;-88
2024/02/01 03:13:17;;;;;;;4.80;3.97;;;10.50;82.40;;;;;;4879258;29;20027;-83
2024/02/01 03:15:42;;;;;;;4.93;3.97;;;10.50;82.40;;;;;;4874924;29;20063;-78
2024/02/01 03:18:10;;;;;;;5.15;4.13;;;10.50;82.30;;;;;;4890151;29;20028;-88
2024/02/01 03:20:36;;;;;;;4.53;3.75;;;10.50;82.30;;;;;;4890339;29;20474;-81
2024/02/01 03:23:05;;;;;;;4.25;3.45;;;10.50;82.30;;;;;;4868948;29;20475;-88
2024/02/01 03:25:32;;;;;;;4.80;3.72;;;10.50;82.30;;;;;;4886135;29;20045;-78
2024/02/01 03:28:04;;;;;;;5.32;4.00;;;10.60;82.40;;;;;;4884056;29;20052;-77
2024/02/01 03:30:31;;;;;;;5.68;3.97;;;10.60;82.40;;;;;;4888103;29;20036;-78
2024/02/01 03:33:01;;;;;;;4.10;3.40;;;10.50;82.30;;;;;;4874491;29;20084;-88
2024/02/01 03:35:27;;;;;;;5.28;3.75;;;10.50;82.30;;;;;;4890186;29;20052;-82
2024/02/01 03:37:53;;;;;;;4.90;3.38;;;10.60;82.30;;;;;;4889121;29;20032;-89
2024/02/01 03:40:19;;;;;;;4.57;3.33;;;10.60;82.30;;;;;;4876281;29;20024;-88
2024/02/01 03:42:47;;;;;;;4.88;3.58;;;10.60;82.40;;;;;;4904068;29;20039;-88
2024/02/01 03:45:13;;;;;;;6.20;3.70;;;10.60;82.40;;;;;;4890086;29;20545;-78
2024/02/01 03:47:39;;;;;;;4.68;3.40;;;10.60;82.40;;;;;;4872282;29;20078;-89
2024/02/01 03:50:08;;;;;;;4.90;3.20;;;10.60;82.30;;;;;;4872161;29;20036;-82
2024/02/01 03:52:38;;;;;;;5.68;3.33;;;10.60;82.40;;;;;;4888472;29;20061;-91
2024/02/01 03:55:16;;;;;;;5.75;3.58;;;10.70;82.40;;;;;;4875353;29;20036;-82
2024/02/01 03:57:51;;;;;;;4.90;2.83;;;10.60;82.40;;;;;;4895799;29;20123;-91
2024/02/01 04:00:28;;;;;;;4.80;3.05;;;10.70;82.40;;;;;;4873817;29;20029;-80
2024/02/01 04:03:04;;;;;;;4.13;3.05;;;10.70;82.30;;;;;;4895677;29;20037;-78
2024/02/01 04:05:37;;;;;;;5.38;3.03;;;10.70;82.30;;;;;;4878490;29;20073;-90
2024/02/01 04:08:07;;;;;;;4.40;2.78;;;10.70;82.30;;;;;;4886851;29;20025;-91
2024/02/01 04:10:37;;;;;;;4.18;2.65;;;10.70;83.00;;;;;;4894797;29;20109;-90
2024/02/01 04:13:07;;;;;;;4.65;2.65;;;10.70;82.40;;;;;;4900894;29;20044;-83
2024/02/01 04:15:34;;;;;;;4.55;2.70;;;10.70;82.40;;;;;;4876672;29;20095;-81
2024/02/01 04:18:00;;;;;;;4.20;2.53;;;10.70;82.40;;;;;;4887330;29;21399;-90
2024/02/01 04:20:26;;;;;;;4.35;2.60;;;10.70;82.40;;;;;;4890904;29;20049;-83
2024/02/01 04:22:55;;;;;;;4.15;2.78;;;10.70;82.40;;;;;;4889351;29;20096;-84
2024/02/01 04:25:23;;;;;;;4.75;3.10;;;10.70;82.50;;;;;;4873364;29;20033;-89
2024/02/01 04:27:52;;;;;;;3.45;2.33;;;10.70;82.40;;;;;;4874722;29;20021;-82
2024/02/01 04:30:19;;;;;;;3.53;2.40;;;10.70;82.40;;;;;;4886896;29;20029;-90
2024/02/01 04:32:48;;;;;;;3.88;2.60;;;10.70;82.40;;;;;;4870933;29;20909;-83
2024/02/01 04:35:15;;;;;;;3.05;2.40;;;10.70;82.40;;;;;;4866310;29;20123;-91
2024/02/01 04:37:42;;;;;;;3.00;2.20;;;10.70;82.40;;;;;;4872865;29;20035;-77
2024/02/01 04:40:09;;;;;;;5.78;2.30;;;10.70;82.50;;;;;;4887468;29;20033;-83
2024/02/01 04:42:35;;;;;;;2.97;2.15;;;10.70;82.50;;;;;;4889459;29;20026;-89
2024/02/01 04:45:05;;;;;;;3.60;2.20;;;10.70;82.40;;;;;;4873252;29;20485;-83
2024/02/01 04:47:34;;;;;;;2.90;1.90;;;10.70;82.40;;;;;;4871548;29;20033;-78
2024/02/01 04:50:00;;;;;;;4.07;2.35;;;10.70;82.40;;;;;;4889971;29;20041;-81
2024/02/01 04:52:27;;;;;;;3.97;2.60;;;10.70;82.30;;;;;;4868240;29;20104;-81
2024/02/01 04:54:53;;;;;;;3.10;1.92;;;10.70;82.40;;;;;;4891311;29;20382;-90
2024/02/01 04:57:20;;;;;;;3.67;1.98;;;10.70;82.30;;;;;;4869691;29;20032;-78
2024/02/01 04:59:47;;;;;;;4.85;2.05;;;10.70;82.40;;;;;;4878202;29;20025;-90
2024/02/01 05:02:14;;;;;;;3.63;2.17;;;10.70;82.40;;;;;;4892027;29;20048;-91
2024/02/01 05:04:43;;;;;;;4.15;1.83;;;10.70;82.40;;;;;;4897598;29;20534;-90
2024/02/01 05:07:10;;;;;;;2.50;1.63;;;10.70;82.50;;;;;;4880642;29;20053;-77
2024/02/01 05:09:37;;;;;;;4.07;1.90;;;10.70;82.60;;;;;;4875135;29;20066;-78
2024/02/01 05:12:06;;;;;;;3.72;1.67;;;10.60;82.60;;;;;;4891270;29;20033;-83
2024/02/01 05:14:32;;;;;;;2.70;1.67;;;10.60;82.60;;;;;;4892623;29;20092;-84
2024/02/01 05:16:58;;;;;;;3.92;2.00;;;10.60;82.70;;;;;;4890330;29;20055;-77
2024/02/01 05:19:25;;;;;;;2.60;1.60;;;10.60;82.70;;;;;;4894622;29;20025;-81
2024/02/01 05:21:54;;;;;;;2.35;1.50;;;10.60;82.70;;;;;;4899578;29;20393;-83
2024/02/01 05:24:24;;;;;;;2.65;1.40;;;10.60;82.70;;;;;;4893953;29;20080;-90
2024/02/01 05:26:51;;;;;;;2.38;1.60;;;10.50;82.70;;;;;;4883341;29;20151;-81
2024/02/01 05:29:25;;;;;;;1.95;1.50;;;10.50;82.70;;;;;;4887760;29;20167;-90
2024/02/01 05:31:53;;;;;;;2.50;1.55;;;10.50;82.80;;;;;;4876022;29;20029;-82
2024/02/01 05:34:20;;;;;;;2.80;1.80;;;10.40;82.80;;;;;;4893717;29;20029;-90
2024/02/01 05:36:47;;;;;;;3.05;1.67;;;10.40;82.80;;;;;;4875785;29;20020;-82
2024/02/01 05:39:26;;;;;;;3.05;1.65;;;10.40;82.80;;;;;;4875353;29;20040;-83
2024/02/01 05:41:55;;;;;;;1.98;1.58;;;10.40;82.80;;;;;;4877501;29;20063;-77
2024/02/01 05:44:21;;;;;;;2.92;1.70;;;10.40;82.90;;;;;;4891308;29;20032;-81
2024/02/01 05:46:49;;;;;;;1.88;1.50;;;10.30;82.90;;;;;;4876445;29;20499;-92
2024/02/01 05:49:18;;;;;;;2.30;1.60;;;10.30;82.90;;;;;;4878917;29;20040;-82
2024/02/01 05:51:46;;;;;;;2.83;1.50;;;10.30;83.00;;;;;;4886895;29;20586;-81
2024/02/01 05:54:13;;;;;;;2.05;1.33;;;10.30;82.90;;;;;;4890507;29;20067;-85
2024/02/01 05:56:39;;;;;;;3.45;1.65;;;10.20;82.90;;;;;;4905244;29;20338;-82
2024/02/01 05:59:05;;;;;;;1.70;1.27;;;10.20;82.90;;;;;;4875582;29;20028;-78
2024/02/01 06:01:31;;;;;;;1.85;1.30;;;10.20;82.90;;;;;;4890957;29;20306;-89
2024/02/01 06:03:56;;;;;;;2.15;1.27;;;10.20;83.00;;;;;;4897134;29;20085;-83
2024/02/01 06:06:24;;;;;;;4.40;1.55;;;10.10;83.00;;;;;;4891217;29;20028;-84
2024/02/01 06:08:50;;;;;;;3.03;1.55;;;10.10;82.90;;;;;;4878877;29;20033;-83
2024/02/01 06:11:15;;;;;;;2.20;1.42;;;10.10;83.00;;;;;;4892087;29;20098;-89
2024/02/01 06:13:44;;;;;;;2.60;1.40;;;10.10;83.00;;;;;;4874937;29;20122;-78
2024/02/01 06:16:13;;;;;;;3.08;1.40;;;10.00;83.00;;;;;;4874519;29;20076;-82
2024/02/01 06:18:39;;;;;;;2.35;1.33;;;10.00;83.00;;;;;;4891608;29;20123;-78
2024/02/01 06:21:05;;;;;;;3.75;1.70;;;10.00;83.00;;;;;;4901013;29;20477;-76
2024/02/01 06:23:31;;;;;;;3.67;1.60;;;10.00;83.00;;;;;;4908157;29;20040;-86
2024/02/01 06:25:57;;;;;;;3.95;1.50;;;9.90;83.00;;;;;;4876341;29;20040;-86
2024/02/01 06:28:27;;;;;;;2.97;1.45;;;9.90;83.00;;;;;;4889757;29;20028;-85
2024/02/01 06:30:53;;;;;;;2.67;1.42;;;9.90;83.00;;;;;;4894467;29;20031;-91
2024/02/01 06:33:28;;;;;;;2.30;1.52;;;9.90;83.00;;;;;;4880055;29;20021;-77
2024/02/01 06:35:54;;;;;;;3.70;1.67;;;9.80;83.00;;;;;;4874714;29;20037;-87
2024/02/01 06:38:25;;;;;;;2.85;1.50;;;9.80;83.00;;;;;;4888490;29;20052;-87
2024/02/01 06:44:02;;;;;;;4.13;1.73;;;9.70;83.00;;;;;;4895855;29;20127;-84
2024/02/01 06:46:49;;;;;;;2.17;1.30;;;9.70;82.90;;;;;;4896154;29;20064;-85
2024/02/01 06:49:18;;;;;;;2.90;1.48;;;9.70;83.00;;;;;;4890870;29;20047;-80
2024/02/01 06:51:46;;;;;;;2.70;1.40;;;9.70;82.90;;;;;;4883326;29;20128;-84
2024/02/01 06:54:28;;;;;;;2.90;1.42;;;9.60;82.90;;;;;;4892167;29;20076;-85
2024/02/01 06:57:03;;;;;;;3.15;1.52;;;9.60;82.90;;;;;;4898083;29;20311;-77
2024/02/01 06:59:44;;;;;;;3.63;1.88;;;9.60;82.90;;;;;;4884944;29;20064;-77
2024/02/01 07:02:35;;;;;;;3.08;1.45;;;9.50;82.90;;;;;;4893785;29;20477;-81
2024/02/01 07:05:25;;;;;;;4.55;1.50;;;9.50;82.80;;;;;;4891635;29;20033;-84
2024/02/01 07:08:01;;;;;;;3.33;1.50;;;9.50;82.90;;;;;;4884100;29;20084;-88
2024/02/01 07:10:43;;;;;;;2.95;1.25;;;9.50;82.90;;;;;;4903270;29;20036;-82
2024/02/01 07:13:21;;;;;;;3.22;1.55;;;9.40;82.80;;;;;;4895787;29;20032;-82
2024/02/01 07:15:48;;;;;;;3.78;1.70;;;9.40;82.80;;;;;;4900633;29;20549;-85
2024/02/01 07:18:14;;;;;;;3.25;1.60;;;9.40;82.90;;;;;;4881636;29;20028;-83
2024/02/01 07:20:50;;;;;;;3.20;1.60;;;9.40;82.90;;;;;;4897038;29;20029;-82
2024/02/01 07:26:00;;;;;;;2.95;1.42;;;9.30;82.80;;;;;;4881812;29;20486;-76
2024/02/01 07:58:39;;;;;;;2.25;1.40;;;9.00;83.00;;;;;;4885235;29;20028;-84
2024/02/01 08:01:14;;;;;;;2.58;1.42;;;8.90;83.00;;;;;;4889757;29;20077;-81
2024/02/01 08:03:56;;;;;;;3.13;1.92;;;8.90;83.00;;;;;;4880888;29;20074;-76
2024/02/01 08:09:12;;;;;;;3.28;1.48;;;8.80;83.00;;;;;;4882395;29;20033;-84
2024/02/01 08:11:41;;;;;;;2.95;1.70;;;8.80;83.00;;;;;;4867913;29;20029;-76
2024/02/01 08:14:09;;;;;;;4.00;1.60;;;8.80;83.00;;;;;;4866099;29;20033;-76
2024/02/01 08:16:35;;;;;;;5.35;1.98;;;8.80;83.60;;;;;;4891009;29;20025;-85
2024/02/01 08:19:00;;;;;;;5.05;1.90;;;8.80;83.60;;;;;;4887101;29;20081;-82
2024/02/01 08:21:28;;;;;;;3.45;1.67;;;8.80;83.00;;;;;;4891346;29;20088;-76
2024/02/01 08:23:54;;;;;;;2.08;1.40;;;8.70;82.90;;;;;;4883341;29;20032;-82
2024/02/01 08:26:21;;;;;;;4.30;1.60;;;8.70;82.90;;;;;;4907906;29;20040;-84
2024/02/01 08:28:47;;;;;;;2.25;1.40;;;8.70;82.90;;;;;;4886344;29;20013;-81
2024/02/01 08:31:17;;;;;;;3.40;2.03;;;8.70;82.90;;;;;;4899288;29;20017;-77
2024/02/01 08:33:44;;;;;;;2.95;1.67;;;8.70;82.90;;;;;;4897370;29;20032;-83
2024/02/01 08:36:17;;;;;;;3.13;1.67;;;8.60;82.90;;;;;;4886734;29;20029;-85
2024/02/01 08:38:43;;;;;;;4.85;1.80;;;8.60;82.90;;;;;;4895656;29;20040;-81
2024/02/01 08:41:11;;;;;;;2.90;1.65;;;8.60;82.90;;;;;;4895642;29;20029;-87
2024/02/01 08:43:40;;;;;;;2.50;1.60;;;8.60;83.00;;;;;;4881501;29;20056;-88
2024/02/01 08:46:06;;;;;;;3.00;1.50;;;8.60;83.00;;;;;;4890417;29;20040;-84
2024/02/01 08:48:32;;;;;;;2.85;1.50;;;8.60;83.00;;;;;;4899708;29;20062;-81
2024/02/01 08:50:58;;;;;;;2.35;1.48;;;8.60;83.00;;;;;;4912306;29;20570;-76
2024/02/01 08:53:26;;;;;;;2.30;1.42;;;8.60;82.90;;;;;;4894389;29;20478;-84
2024/02/01 08:55:55;;;;;;;3.75;1.75;;;8.50;82.90;;;;;;4887952;29;20037;-87
2024/02/01 08:58:21;;;;;;;3.60;1.80;;;8.50;82.90;;;;;;4899214;29;20043;-82
2024/02/01 09:00:49;;;;;;;2.60;1.55;;;8.50;82.90;;;;;;4904256;29;20020;-87
2024/02/01 09:03:17;;;;;;;5.32;1.88;;;8.50;83.60;;;;;;4875108;29;20033;-87
2024/02/01 09:05:47;;;;;;;2.85;1.75;;;8.50;83.00;;;;;;4889972;29;20411;-82
2024/02/01 09:08:15;;;;;;;3.10;1.65;;;8.50;83.10;;;;;;4881333;29;20398;-76
2024/02/01 09:10:57;;;;;;;3.28;1.42;;;8.50;83.10;;;;;;4887204;29;20033;-84
2024/02/01 09:13:24;;;;;;;4.07;1.70;;;8.50;83.10;;;;;;4894175;29;20036;-81
2024/02/01 09:15:53;;;;;;;3.33;1.73;;;8.50;83.10;;;;;;4906746;29;20048;-85
2024/02/01 09:18:21;;;;;;;3.42;1.80;;;8.40;83.10;;;;;;4886248;29;20481;-77
2024/02/01 09:20:48;;;;;;;4.30;1.70;;;8.40;83.10;;;;;;4889253;29;20028;-88
2024/02/01 09:23:14;;;;;;;3.92;1.85;;;8.40;83.10;;;;;;4879919;29;20513;-85
2024/02/01 09:25:41;;;;;;;4.57;1.63;;;8.40;83.20;;;;;;4893930;29;20032;-84
2024/02/01 09:28:14;;;;;;;3.67;1.50;;;8.40;83.10;;;;;;4898472;29;20037;-88
2024/02/01 09:30:45;;;;;;;3.03;1.58;;;8.40;83.10;;;;;;4894158;29;20025;-80
2024/02/01 09:33:23;;;;;;;4.88;1.73;;;8.40;83.10;;;;;;4891423;29;20021;-89
2024/02/01 09:35:50;;;;;;;3.92;1.73;;;8.40;83.10;;;;;;4896420;29;20029;-77
2024/02/01 09:38:19;;;;;;;3.25;1.77;;;8.40;83.10;;;;;;4893058;29;20024;-76
2024/02/01 09:40:48;;;;;;;3.53;1.90;;;8.40;83.10;;;;;;4891949;29;20025;-85
2024/02/01 09:43:20;;;;;;;3.40;1.48;;;8.40;83.10;;;;;;4884562;29;20037;-81
2024/02/01 09:45:47;;;;;;;3.88;1.90;;;8.40;83.20;;;;;;4899308;29;20036;-80
2024/02/01 09:48:17;;;;;;;3.05;1.50;;;8.40;83.20;;;;;;4896453;29;20036;-89
2024/02/01 09:50:51;;;;;;;3.08;1.77;;;8.40;83.10;;;;;;4907525;29;20044;-85
2024/02/01 09:53:22;;;;;;;2.78;1.60;;;8.50;83.20;;;;;;4905313;29;20044;-93
2024/02/01 09:55:50;;;;;;;3.40;1.50;;;8.50;83.10;;;;;;4911177;29;20032;-91
2024/02/01 09:58:17;;;;;;;4.20;1.65;;;8.50;83.10;;;;;;4880731;29;20025;-77
2024/02/01 10:00:44;;;;;;;3.10;1.70;;;8.50;83.10;;;;;;4872506;29;20048;-77
2024/02/01 10:03:13;;;;;;;4.03;1.75;;;8.50;83.10;;;;;;4897753;29;20096;-81
2024/02/01 10:05:43;;;;;;;3.83;1.42;;;8.50;83.10;;;;;;4892266;29;20036;-84
2024/02/01 10:08:11;;;;;;;2.58;1.65;;;8.50;83.10;;;;;;4894346;29;20025;-85
2024/02/01 10:10:38;;;;;;;2.38;1.50;;;8.60;83.20;;;;;;4890137;29;20450;-89
2024/02/01 10:13:06;;;;;;;3.92;1.88;;;8.50;83.10;;;;;;4883294;29;20028;-84
2024/02/01 10:15:33;;;;;;;3.75;1.55;;;8.60;83.20;;;;;;4895254;29;20037;-77
2024/02/01 10:17:59;;;;;;;4.30;1.67;;;8.60;83.20;;;;;;4895278;29;20119;-93
2024/02/01 10:20:35;;;;;;;3.65;1.58;;;8.60;83.20;;;;;;4890788;29;20066;-83
2024/02/01 10:23:02;;;;;;;4.18;1.70;;;8.60;83.20;;;;;;4889095;29;20072;-90
2024/02/01 10:25:33;;;;;;;3.38;1.50;;;8.60;83.20;;;;;;4892558;29;20064;-83
2024/02/01 10:28:07;;;;;;;4.45;1.80;;;8.60;83.20;;;;;;4880090;29;20136;-87
2024/02/01 10:30:36;;;;;;;2.70;1.65;;;8.60;83.20;;;;;;4889503;29;20033;-87
2024/02/01 10:33:05;;;;;;;2.30;1.50;;;8.70;83.20;;;;;;4898670;29;20013;-93
2024/02/01 10:35:32;;;;;;;5.00;2.05;;;8.70;83.20;;;;;;4886174;29;20052;-85
2024/02/01 10:38:01;;;;;;;2.95;1.60;;;8.70;83.20;;;;;;4881031;29;20044;-94
2024/02/01 10:40:39;;;;;;;3.75;1.77;;;8.70;83.30;;;;;;4890709;29;20048;-82
2024/02/01 10:43:06;;;;;;;5.47;1.77;;;8.80;83.40;;;;;;4879581;29;20033;-94
2024/02/01 10:45:37;;;;;;;3.67;1.85;;;8.70;83.30;;;;;;4894453;29;20113;-77
2024/02/01 10:48:12;;;;;;;3.70;1.92;;;8.80;83.40;;;;;;4899336;29;20044;-82
2024/02/01 10:50:39;;;;;;;4.50;1.70;;;8.80;83.50;;;;;;4892071;29;20094;-82
2024/02/01 10:53:11;;;;;;;2.65;1.60;;;8.80;83.50;;;;;;4893079;29;20057;-82
2024/02/01 10:55:39;;;;;;;4.78;2.30;;;8.80;83.50;;;;;;4877651;29;20117;-84
2024/02/01 10:58:12;;;;;;;5.97;2.05;;;8.80;83.60;;;;;;4872918;29;20397;-78
2024/02/01 11:00:42;;;;;;;7.80;2.20;;;8.80;83.60;;;;;;4874339;29;20025;-77
2024/02/01 11:03:11;;;;;;;3.70;1.90;;;8.80;83.60;;;;;;4875924;29;20047;-77
2024/02/01 11:05:38;;;;;;;6.32;2.13;;;8.90;83.60;;;;;;4866812;29;20079;-92
2024/02/01 11:08:17;;;;;;;5.22;2.63;;;8.90;83.70;;;;;;4894561;29;20025;-82
2024/02/01 11:11:15;;;;;;;5.30;2.00;;;8.90;83.80;;;;;;4902013;29;20544;-82
2024/02/01 11:13:45;;;;;;;4.07;2.13;;;8.90;83.80;;;;;;4886339;29;20067;-82
2024/02/01 11:16:11;;;;;;;4.88;2.00;;;8.90;83.70;;;;;;4873247;29;20025;-82
2024/02/01 11:18:47;;;;;;;5.85;1.88;;;9.00;83.80;;;;;;4896445;29;20489;-94
2024/02/01 11:21:23;;;;;;;6.85;2.67;;;9.00;83.80;;;;;;4910221;29;20031;-82
2024/02/01 11:23:49;;;;;;;4.13;2.00;;;9.00;83.80;;;;;;4884426;29;20033;-82
2024/02/01 11:26:17;;;;;;;5.15;2.03;;;9.00;83.80;;;;;;4903216;29;20064;-93
2024/02/01 11:28:47;;;;;;;4.45;1.67;;;9.00;83.90;;;;;;4896773;29;20051;-82
2024/02/01 11:31:17;;;;;;;4.63;1.92;;;9.10;83.90;;;;;;4888096;29;20025;-83
2024/02/01 11:33:44;;;;;;;4.20;1.75;;;9.10;83.90;;;;;;4870435;29;20033;-84
2024/02/01 11:36:09;;;;;;;4.18;2.00;;;9.10;83.90;;;;;;4885124;29;20096;-81
2024/02/01 11:38:35;;;;;;;3.55;1.98;;;9.10;84.00;;;;;;4874138;29;20088;-84
2024/02/01 11:41:01;;;;;;;3.95;2.00;;;9.10;84.00;;;;;;4907580;29;20592;-93
2024/02/01 11:43:28;;;;;;;3.67;1.83;;;9.20;84.00;;;;;;4891995;29;20498;-77
2024/02/01 11:45:56;;;;;;;2.40;1.50;;;9.20;84.10;;;;;;4886838;29;20182;-77
2024/02/01 11:48:24;;;;;;;3.67;1.70;;;9.20;84.10;;;;;;4875247;29;20020;-83
2024/02/01 11:50:53;;;;;;;6.32;2.03;;;9.20;84.10;;;;;;4882770;29;20029;-77
2024/02/01 11:53:20;;;;;;;4.00;2.08;;;9.20;84.10;;;;;;4889317;29;20045;-93
2024/02/01 11:55:47;;;;;;;4.70;1.88;;;9.30;84.20;;;;;;4872584;29;20088;-94
2024/02/01 11:58:17;;;;;;;4.18;1.75;;;9.30;84.20;;;;;;4883621;29;20033;-82
2024/02/01 12:00:44;;;;;;;7.72;1.80;;;9.30;84.20;;;;;;4894652;29;20029;-82
2024/02/01 12:03:10;;;;;;;4.47;1.90;;;9.30;84.20;;;;;;4894012;29;20052;-84
2024/02/01 12:05:36;;;;;;;5.25;2.03;;;9.30;84.20;;;;;;4889646;29;20072;-83
2024/02/01 12:08:03;;;;;;;3.95;2.15;;;9.40;84.30;;;;;;4884129;29;20166;-77
2024/02/01 12:10:31;;;;;;;4.00;1.92;;;9.40;84.30;;;;;;4898320;29;20119;-96
2024/02/01 12:12:57;;;;;;;3.58;1.88;;;9.40;84.30;;;;;;4904371;29;20521;-78
2024/02/01 12:15:25;;;;;;;6.72;2.20;;;9.40;84.30;;;;;;4872950;29;20105;-90
2024/02/01 12:17:55;;;;;;;3.75;1.90;;;9.40;84.30;;;;;;4896821;29;20032;-85
2024/02/01 12:20:28;;;;;;;6.68;2.47;;;9.50;84.40;;;;;;4883535;29;20040;-83
2024/02/01 12:22:57;;;;;;;4.32;2.00;;;9.50;84.30;;;;;;4876990;29;20029;-84
2024/02/01 12:25:24;;;;;;;4.40;2.20;;;9.50;84.40;;;;;;4914566;29;20039;-77
2024/02/01 12:27:50;;;;;;;5.05;2.00;;;9.50;84.30;;;;;;4890751;29;20138;-78
2024/02/01 12:30:21;;;;;;;7.85;2.30;;;9.60;84.40;;;;;;4880024;29;20616;-77
2024/02/01 12:32:46;;;;;;;6.45;2.03;;;9.60;84.40;;;;;;4895787;29;20346;-82
2024/02/01 12:35:19;;;;;;;3.88;2.15;;;9.60;84.30;;;;;;4875480;29;20025;-78
2024/02/01 12:37:46;;;;;;;5.88;2.08;;;9.70;84.40;;;;;;4890591;29;20477;-78
2024/02/01 12:40:13;;;;;;;5.40;2.65;;;9.70;84.40;;;;;;4911602;29;20055;-96
2024/02/01 12:42:45;;;;;;;4.78;2.28;;;9.70;84.40;;;;;;4895453;29;20033;-94
2024/02/01 12:45:20;;;;;;;3.15;1.63;;;9.80;84.40;;;;;;4885462;29;20036;-82
2024/02/01 12:47:53;;;;;;;4.55;2.15;;;9.80;84.30;;;;;;4900568;29;20040;-83
2024/02/01 12:50:20;;;;;;;5.25;2.10;;;9.90;84.40;;;;;;4882825;29;20036;-95
2024/02/01 12:52:46;;;;;;;3.53;1.90;;;9.90;84.40;;;;;;4894620;29;20040;-78
2024/02/01 12:55:12;;;;;;;5.50;2.50;;;9.90;84.40;;;;;;4884774;29;20492;-95
2024/02/01 12:57:42;;;;;;;4.55;1.92;;;10.00;84.50;;;;;;4892696;29;20025;-78
2024/02/01 13:00:12;;;;;;;4.18;1.90;;;10.00;84.40;;;;;;4889259;29;20029;-82
2024/02/01 13:02:39;;;;;;;5.20;2.05;;;10.00;84.40;;;;;;4882063;29;20443;-78
2024/02/01 13:05:09;;;;;;;4.90;1.98;;;10.10;84.50;;;;;;4872088;29;20040;-82
2024/02/01 13:07:35;;;;;;;4.03;2.10;;;10.10;84.40;;;;;;4896123;29;20123;-84
2024/02/01 13:10:06;;;;;;;4.68;2.15;;;10.20;84.50;;;;;;4883374;29;20036;-84
2024/02/01 13:12:33;;;;;;;5.38;2.35;;;10.20;84.50;;;;;;4888424;29;20024;-92
2024/02/01 13:15:00;;;;;;;5.07;2.38;;;10.20;84.40;;;;;;4890931;29;20115;-86
2024/02/01 13:17:27;;;;;;;8.93;2.70;;;10.30;84.40;;;;;;4898429;29;20029;-78
2024/02/01 13:19:55;;;;;;;3.45;1.80;;;10.40;84.50;;;;;;4908955;29;20028;-95
2024/02/01 13:22:31;;;;;;;4.20;1.83;;;10.40;84.40;;;;;;4875440;29;20033;-94
2024/02/01 13:24:56;;;;;;;7.53;2.00;;;10.40;84.50;;;;;;4866018;29;20029;-78
2024/02/01 13:27:26;;;;;;;5.22;2.10;;;10.50;84.40;;;;;;4887397;29;20049;-78
2024/02/01 13:29:51;;;;;;;4.97;2.85;;;10.50;84.50;;;;;;4898830;29;20032;-95
2024/02/01 13:32:18;;;;;;;5.65;2.00;;;10.50;84.40;;;;;;4905087;29;20044;-83
2024/02/01 13:34:43;;;;;;;7.65;2.60;;;10.60;84.50;;;;;;4885771;29;20043;-84